createdAt,value
2022-10-23T00:01:43.863Z,7.10
2022-10-23T00:04:22.463Z,7.60
2022-10-23T00:06:50.129Z,7.20
2022-10-23T00:09:19.963Z,7.20
2022-10-23T00:11:48.977Z,7.30
2022-10-23T00:14:18.989Z,7.20
2022-10-23T00:19:22.315Z,7.30
2022-10-23T00:21:49.927Z,7.30
2022-10-23T00:27:03.510Z,7.30
2022-10-23T00:30:16.301Z,6.90
2022-10-23T00:32:46.387Z,7.30
2022-10-23T00:35:14.087Z,6.60
2022-10-23T00:37:41.926Z,7.20
2022-10-23T00:40:10.282Z,7.60
2022-10-23T00:47:58.499Z,7.20
2022-10-23T00:50:27.833Z,6.90
2022-10-23T00:52:57.894Z,7.30
2022-10-23T01:00:57.049Z,7.30
2022-10-23T01:06:28.227Z,7.30
2022-10-23T01:09:17.784Z,7.30
2022-10-23T01:11:52.854Z,7.90
2022-10-23T01:14:27.892Z,7.40
2022-10-23T01:17:11.167Z,7.50
2022-10-23T01:19:43.061Z,7.30
2022-10-23T01:25:03.315Z,7.20
2022-10-23T01:27:42.475Z,8.10
2022-10-23T01:30:13.494Z,7.30
2022-10-23T01:32:54.590Z,7.30
2022-10-23T01:35:28.074Z,7.20
2022-10-23T01:38:14.574Z,7.20
2022-10-23T01:41:06.587Z,7.20
2022-10-23T01:43:46.110Z,7.10
2022-10-23T01:46:17.969Z,7.10
2022-10-23T01:48:52.023Z,7.10
2022-10-23T01:51:21.263Z,7.10
2022-10-23T01:53:52.833Z,7.20
2022-10-23T01:56:23.558Z,7.20
2022-10-23T01:58:54.131Z,6.60
2022-10-23T02:01:24.992Z,7.20
2022-10-23T02:03:54.653Z,7.20
2022-10-23T02:06:22.189Z,7.20
2022-10-23T02:08:49.785Z,7.20
2022-10-23T02:11:21.175Z,6.70
2022-10-23T02:14:00.726Z,7.10
2022-10-23T02:16:41.676Z,7.30
2022-10-23T02:19:20.490Z,7.80
2022-10-23T02:21:54.103Z,7.40
2022-10-23T02:24:41.359Z,7.30
2022-10-23T02:27:18.999Z,7.00
2022-10-23T02:29:53.559Z,6.90
2022-10-23T02:32:24.839Z,7.30
2022-10-23T02:34:52.326Z,7.30
2022-10-23T02:37:19.504Z,7.30
2022-10-23T02:39:46.740Z,7.30
2022-10-23T02:42:31.209Z,7.40
2022-10-23T02:45:23.479Z,7.20
2022-10-23T02:48:05.359Z,7.30
2022-10-23T02:50:54.301Z,7.30
2022-10-23T02:53:27.449Z,7.40
2022-10-23T02:56:17.974Z,7.40
2022-10-23T02:59:11.276Z,7.80
2022-10-23T03:02:15.732Z,7.50
2022-10-23T03:04:44.437Z,7.40
2022-10-23T03:07:13.887Z,7.40
2022-10-23T03:09:41.203Z,7.50
2022-10-23T03:12:08.536Z,7.50
2022-10-23T03:14:36.108Z,7.50
2022-10-23T03:17:04.847Z,7.60
2022-10-23T03:19:32.299Z,7.40
2022-10-23T03:21:59.581Z,7.60
2022-10-23T03:24:27.039Z,7.20
2022-10-23T03:26:54.248Z,7.90
2022-10-23T03:29:21.818Z,7.70
2022-10-23T03:31:49.251Z,7.70
2022-10-23T03:34:16.660Z,7.90
2022-10-23T03:36:44.133Z,7.70
2022-10-23T03:39:11.611Z,7.70
2022-10-23T03:41:38.877Z,7.70
2022-10-23T03:44:06.509Z,8.10
2022-10-23T03:46:33.925Z,7.80
2022-10-23T03:49:01.174Z,7.80
2022-10-23T03:51:28.456Z,7.80
2022-10-23T03:53:56.041Z,7.90
2022-10-23T03:56:23.624Z,7.90
2022-10-23T03:58:51.042Z,7.50
2022-10-23T04:01:18.380Z,7.90
2022-10-23T04:03:45.661Z,7.90
2022-10-23T04:06:13.099Z,8.50
2022-10-23T04:08:40.472Z,7.90
2022-10-23T04:11:07.761Z,7.90
2022-10-23T04:13:34.889Z,8.00
2022-10-23T04:16:02.381Z,8.00
2022-10-23T04:18:29.554Z,8.00
2022-10-23T04:20:56.882Z,7.90
2022-10-23T04:23:24.173Z,8.00
2022-10-23T04:25:51.527Z,7.90
2022-10-23T04:28:18.882Z,7.90
2022-10-23T04:30:45.963Z,8.00
2022-10-23T04:33:13.621Z,8.00
2022-10-23T04:35:41.083Z,8.00
2022-10-23T04:38:08.470Z,8.00
2022-10-23T04:40:35.937Z,7.80
2022-10-23T04:43:03.713Z,8.10
2022-10-23T04:45:31.831Z,7.80
2022-10-23T04:47:59.420Z,8.10
2022-10-23T04:50:31.094Z,8.10
2022-10-23T04:53:01.108Z,8.70
2022-10-23T04:55:30.440Z,8.10
2022-10-23T04:57:57.900Z,8.10
2022-10-23T05:00:26.292Z,8.20
2022-10-23T05:02:54.382Z,7.40
2022-10-23T05:05:21.668Z,8.30
2022-10-23T05:07:48.999Z,8.30
2022-10-23T05:10:19.309Z,8.10
2022-10-23T05:12:46.390Z,8.40
2022-10-23T05:15:13.848Z,8.50
2022-10-23T05:17:44.623Z,8.40
2022-10-23T05:20:18.593Z,8.40
2022-10-23T05:22:49.363Z,7.90
2022-10-23T05:25:18.585Z,8.30
2022-10-23T05:27:46.221Z,8.70
2022-10-23T05:30:14.303Z,8.70
2022-10-23T05:32:42.051Z,8.70
2022-10-23T05:35:14.734Z,8.70
2022-10-23T05:37:49.165Z,8.50
2022-10-23T05:40:17.145Z,8.80
2022-10-23T05:42:47.918Z,8.90
2022-10-23T05:45:16.643Z,8.80
2022-10-23T05:47:48.222Z,9.00
2022-10-23T05:50:16.126Z,9.10
2022-10-23T05:52:47.318Z,9.20
2022-10-23T05:55:15.245Z,9.70
2022-10-23T05:57:42.784Z,9.40
2022-10-23T06:00:11.433Z,9.40
2022-10-23T06:02:39.687Z,10.30
2022-10-23T06:05:07.574Z,9.50
2022-10-23T06:07:35.980Z,9.60
2022-10-23T06:10:05.156Z,9.60
2022-10-23T06:12:33.772Z,9.70
2022-10-23T06:15:00.910Z,9.70
2022-10-23T06:17:29.318Z,10.50
2022-10-23T06:20:01.337Z,9.80
2022-10-23T06:22:31.779Z,10.00
2022-10-23T06:24:59.428Z,10.00
2022-10-23T06:27:26.709Z,10.10
2022-10-23T06:29:55.549Z,10.10
2022-10-23T06:32:23.757Z,10.10
2022-10-23T06:34:51.311Z,10.10
2022-10-23T06:37:18.620Z,10.10
2022-10-23T06:39:46.495Z,9.70
2022-10-23T06:42:13.757Z,10.10
2022-10-23T06:44:41.414Z,10.30
2022-10-23T06:47:14.673Z,10.30
2022-10-23T06:49:42.779Z,10.30
2022-10-23T06:52:18.483Z,10.80
2022-10-23T06:54:56.586Z,10.30
2022-10-23T06:57:25.241Z,10.30
2022-10-23T06:59:55.372Z,10.30
2022-10-23T07:02:22.918Z,10.30
2022-10-23T07:04:50.225Z,10.30
2022-10-23T07:07:18.968Z,10.30
2022-10-23T07:09:48.634Z,10.40
2022-10-23T07:12:19.203Z,10.50
2022-10-23T07:14:46.880Z,10.50
2022-10-23T07:17:14.720Z,10.50
2022-10-23T07:19:42.388Z,10.40
2022-10-23T07:22:14.971Z,10.50
2022-10-23T07:24:46.739Z,10.60
2022-10-23T07:27:14.654Z,10.50
2022-10-23T07:29:45.214Z,10.40
2022-10-23T07:32:12.754Z,10.50
2022-10-23T07:34:40.592Z,10.60
2022-10-23T07:37:08.064Z,10.60
2022-10-23T07:39:37.420Z,10.70
2022-10-23T07:42:05.121Z,10.70
2022-10-23T07:44:32.997Z,10.70
2022-10-23T07:47:01.133Z,10.80
2022-10-23T07:49:28.304Z,10.80
2022-10-23T07:51:59.042Z,10.90
2022-10-23T07:54:26.132Z,10.90
2022-10-23T07:56:54.015Z,10.90
2022-10-23T07:59:21.358Z,10.90
2022-10-23T08:01:52.587Z,10.90
2022-10-23T08:04:23.128Z,10.90
2022-10-23T08:06:50.987Z,10.90
2022-10-23T08:09:18.853Z,11.10
2022-10-23T08:11:46.855Z,11.10
2022-10-23T08:14:14.126Z,11.20
2022-10-23T08:16:41.242Z,11.20
2022-10-23T08:19:10.460Z,11.10
2022-10-23T08:21:39.723Z,11.00
2022-10-23T08:24:07.616Z,11.10
2022-10-23T08:26:38.051Z,10.80
2022-10-23T08:29:05.371Z,11.00
2022-10-23T08:31:34.831Z,10.90
2022-10-23T08:34:02.758Z,11.00
2022-10-23T08:36:30.288Z,10.80
2022-10-23T08:38:59.068Z,11.10
2022-10-23T08:41:32.635Z,11.10
2022-10-23T08:44:45.632Z,11.00
2022-10-23T08:47:26.682Z,11.20
2022-10-23T08:50:30.840Z,11.10
2022-10-23T08:53:07.077Z,11.20
2022-10-23T08:55:38.263Z,11.20
2022-10-23T08:58:32.648Z,11.10
2022-10-23T09:01:05.807Z,11.00
2022-10-23T09:03:33.558Z,11.10
2022-10-23T09:06:15.381Z,11.10
2022-10-23T09:09:10.798Z,11.20
2022-10-23T09:11:51.145Z,11.10
2022-10-23T09:14:48.996Z,11.20
2022-10-23T09:17:24.988Z,11.30
2022-10-23T09:20:05.806Z,11.40
2022-10-23T09:22:33.954Z,11.60
2022-10-23T09:25:02.575Z,11.60
2022-10-23T09:27:32.699Z,11.60
2022-10-23T09:30:00.284Z,12.00
2022-10-23T09:32:38.540Z,12.20
2022-10-23T09:35:07.264Z,12.20
2022-10-23T09:37:40.347Z,12.30
2022-10-23T09:40:27.971Z,12.40
2022-10-23T09:42:59.349Z,12.70
2022-10-23T09:45:34.423Z,12.50
2022-10-23T09:48:14.630Z,12.40
2022-10-23T09:50:59.126Z,12.10
2022-10-23T09:53:40.523Z,12.00
2022-10-23T09:56:30.215Z,11.90
2022-10-23T09:59:01.267Z,12.00
2022-10-23T10:01:34.026Z,12.10
2022-10-23T10:04:01.437Z,12.20
2022-10-23T10:06:32.042Z,12.20
2022-10-23T10:09:03.125Z,12.30
2022-10-23T10:11:32.162Z,12.40
2022-10-23T10:14:19.415Z,11.90
2022-10-23T10:17:07.167Z,12.50
2022-10-23T10:20:07.162Z,12.60
2022-10-23T10:22:43.385Z,12.70
2022-10-23T10:25:27.491Z,12.80
2022-10-23T10:30:57.892Z,12.70
2022-10-23T10:33:52.953Z,12.70
2022-10-23T10:36:45.244Z,12.80
2022-10-23T10:39:40.564Z,13.00
2022-10-23T10:42:31.989Z,13.40
2022-10-23T10:45:07.350Z,13.10
2022-10-23T10:47:43.898Z,12.70
2022-10-23T10:50:53.963Z,12.90
2022-10-23T10:53:25.608Z,12.80
2022-10-23T10:58:49.572Z,12.40
2022-10-23T11:01:24.856Z,11.90
2022-10-23T11:04:13.223Z,11.80
2022-10-23T11:06:45.478Z,12.30
2022-10-23T11:09:40.594Z,11.70
2022-10-23T11:12:14.887Z,11.60
2022-10-23T11:14:44.009Z,12.10
2022-10-23T11:17:32.993Z,11.60
2022-10-23T11:20:32.951Z,11.40
2022-10-23T11:26:04.618Z,11.30
2022-10-23T11:28:47.047Z,11.30
2022-10-23T11:31:37.213Z,11.20
2022-10-23T11:34:23.742Z,11.20
2022-10-23T11:36:57.629Z,11.30
2022-10-23T11:39:25.484Z,11.30
2022-10-23T11:41:59.548Z,11.30
2022-10-23T11:44:47.666Z,11.40
2022-10-23T11:47:36.372Z,11.40
2022-10-23T11:50:09.650Z,11.40
2022-10-23T11:52:45.728Z,11.40
2022-10-23T11:55:26.037Z,11.40
2022-10-23T12:01:07.679Z,11.70
2022-10-23T12:03:55.814Z,11.50
2022-10-23T12:06:38.363Z,11.60
2022-10-23T12:09:45.389Z,11.70
2022-10-23T12:12:18.552Z,11.70
2022-10-23T12:14:51.287Z,11.70
2022-10-23T12:17:24.554Z,11.40
2022-10-23T12:20:16.385Z,11.70
2022-10-23T12:23:01.417Z,11.80
2022-10-23T12:25:57.676Z,11.90
2022-10-23T12:29:06.329Z,11.90
2022-10-23T12:31:45.572Z,12.00
2022-10-23T12:34:23.815Z,12.00
2022-10-23T12:37:59.126Z,11.80
2022-10-23T12:40:30.070Z,11.80
2022-10-23T12:43:00.767Z,11.80
2022-10-23T12:45:31.783Z,11.80
2022-10-23T12:47:58.797Z,11.70
2022-10-23T12:50:27.326Z,11.50
2022-10-23T12:53:03.927Z,11.60
2022-10-23T12:55:46.635Z,11.50
2022-10-23T12:58:25.993Z,11.40
2022-10-23T13:01:01.849Z,11.50
2022-10-23T13:03:31.302Z,11.30
2022-10-23T13:06:02.703Z,11.30
2022-10-23T13:08:42.312Z,11.20
2022-10-23T13:11:21.124Z,11.10
2022-10-23T13:13:49.581Z,11.20
2022-10-23T13:16:17.792Z,11.20
2022-10-23T13:18:45.024Z,11.10
2022-10-23T13:21:21.218Z,11.00
2022-10-23T13:23:49.343Z,11.20
2022-10-23T13:26:28.980Z,11.30
2022-10-23T13:28:57.445Z,11.20
2022-10-23T13:31:26.262Z,11.20
2022-10-23T13:34:06.767Z,11.20
2022-10-23T13:36:37.537Z,11.20
2022-10-23T13:39:10.940Z,11.10
2022-10-23T13:41:46.506Z,11.00
2022-10-23T13:44:15.826Z,10.90
2022-10-23T13:46:43.551Z,10.90
2022-10-23T13:49:10.743Z,10.80
2022-10-23T13:51:51.442Z,10.80
2022-10-23T13:56:54.788Z,10.70
2022-10-23T13:59:22.244Z,10.60
2022-10-23T14:01:50.878Z,10.60
2022-10-23T14:04:19.138Z,10.60
2022-10-23T14:06:46.369Z,10.50
2022-10-23T14:09:16.580Z,10.50
2022-10-23T14:11:44.087Z,10.40
2022-10-23T14:14:11.399Z,10.50
2022-10-23T14:16:38.271Z,10.40
2022-10-23T14:19:05.480Z,10.40
2022-10-23T14:21:32.369Z,10.40
2022-10-23T14:24:00.093Z,10.30
2022-10-23T14:26:30.488Z,10.30
2022-10-23T14:29:02.319Z,10.20
2022-10-23T14:31:34.335Z,10.30
2022-10-23T14:34:02.089Z,10.20
2022-10-23T14:36:38.546Z,10.10
2022-10-23T14:39:21.566Z,10.00
2022-10-23T14:41:50.646Z,10.00
2022-10-23T14:44:19.331Z,9.90
2022-10-23T14:46:46.770Z,9.90
2022-10-23T14:49:13.815Z,9.80
2022-10-23T14:51:40.880Z,9.80
2022-10-23T14:54:08.807Z,9.80
2022-10-23T14:56:41.107Z,9.80
2022-10-23T14:59:09.344Z,9.90
2022-10-23T15:01:43.694Z,9.80
2022-10-23T15:04:16.342Z,9.80
2022-10-23T15:06:53.546Z,9.80
2022-10-23T15:09:45.546Z,9.80
2022-10-23T15:12:21.878Z,9.80
2022-10-23T15:14:52.152Z,9.90
2022-10-23T15:17:26.476Z,9.80
2022-10-23T15:19:57.663Z,9.90
2022-10-23T15:22:25.311Z,9.80
2022-10-23T15:24:52.958Z,9.80
2022-10-23T15:27:20.854Z,9.80
2022-10-23T15:29:48.143Z,9.80
2022-10-23T15:32:16.664Z,9.80
2022-10-23T15:34:44.425Z,9.80
2022-10-23T15:37:15.158Z,9.80
2022-10-23T15:39:43.604Z,9.80
2022-10-23T15:42:11.448Z,9.80
2022-10-23T15:44:41.172Z,9.90
2022-10-23T15:47:11.483Z,9.80
2022-10-23T15:49:40.974Z,9.70
2022-10-23T15:54:37.253Z,9.80
2022-10-23T15:57:04.591Z,9.70
2022-10-23T15:59:34.717Z,9.70
2022-10-23T16:02:01.812Z,9.70
2022-10-23T16:04:29.175Z,9.70
2022-10-23T16:06:56.603Z,9.80
2022-10-23T16:09:23.695Z,9.80
2022-10-23T16:11:50.868Z,9.80
2022-10-23T16:14:17.935Z,9.70
2022-10-23T16:16:50.974Z,9.80
2022-10-23T16:19:19.659Z,9.80
2022-10-23T16:21:48.182Z,9.60
2022-10-23T16:24:15.629Z,9.50
2022-10-23T16:26:42.984Z,9.60
2022-10-23T16:29:12.279Z,9.60
2022-10-23T16:31:42.320Z,9.70
2022-10-23T16:34:16.906Z,9.80
2022-10-23T16:36:45.159Z,9.70
2022-10-23T16:39:18.212Z,9.70
2022-10-23T16:41:51.119Z,9.70
2022-10-23T16:44:23.033Z,9.70
2022-10-23T16:46:50.437Z,9.70
2022-10-23T16:49:17.720Z,9.70
2022-10-23T16:51:45.171Z,9.70
2022-10-23T16:54:12.768Z,9.60
2022-10-23T16:56:41.422Z,9.60
2022-10-23T16:59:09.928Z,9.60
2022-10-23T17:01:41.550Z,9.60
2022-10-23T17:04:11.038Z,9.60
2022-10-23T17:06:38.905Z,9.60
2022-10-23T17:09:07.455Z,9.60
2022-10-23T17:11:42.050Z,9.70
2022-10-23T17:17:06.515Z,9.70
2022-10-23T17:19:50.544Z,9.60
2022-10-23T17:22:20.509Z,9.50
2022-10-23T17:24:50.248Z,9.50
2022-10-23T17:27:20.974Z,9.50
2022-10-23T17:32:24.634Z,9.50
2022-10-23T17:34:57.329Z,9.50
2022-10-23T17:37:24.772Z,9.40
2022-10-23T17:39:52.065Z,9.50
2022-10-23T17:42:20.097Z,9.50
2022-10-23T17:44:48.050Z,9.40
2022-10-23T17:47:15.078Z,9.40
2022-10-23T17:49:44.153Z,9.40
2022-10-23T17:54:56.745Z,9.40
2022-10-23T17:57:25.768Z,9.50
2022-10-23T17:59:56.690Z,9.40
2022-10-23T18:02:25.193Z,9.30
2022-10-23T18:04:52.678Z,9.40
2022-10-23T18:07:20.367Z,9.40
2022-10-23T18:09:54.197Z,9.50
2022-10-23T18:12:22.799Z,9.50
2022-10-23T18:14:50.228Z,9.40
2022-10-23T18:17:17.385Z,9.40
2022-10-23T18:19:45.977Z,9.40
2022-10-23T18:22:14.183Z,9.20
2022-10-23T18:24:41.150Z,9.20
2022-10-23T18:27:08.733Z,9.10
2022-10-23T18:29:36.590Z,9.00
2022-10-23T18:32:05.610Z,9.00
2022-10-23T18:34:33.470Z,9.00
2022-10-23T18:37:01.624Z,8.90
2022-10-23T18:39:28.882Z,8.90
2022-10-23T18:41:58.705Z,8.90
2022-10-23T18:44:29.416Z,8.90
2022-10-23T18:46:58.903Z,8.90
2022-10-23T18:49:26.953Z,9.00
2022-10-23T18:51:55.166Z,8.90
2022-10-23T18:54:23.036Z,9.00
2022-10-23T18:56:52.122Z,9.00
2022-10-23T18:59:21.672Z,8.90
2022-10-23T19:01:49.472Z,8.90
2022-10-23T19:04:19.068Z,9.00
2022-10-23T19:06:48.561Z,9.00
2022-10-23T19:09:16.721Z,9.00
2022-10-23T19:11:45.908Z,9.00
2022-10-23T19:14:14.312Z,9.00
2022-10-23T19:17:00.617Z,9.00
2022-10-23T19:19:31.699Z,9.00
2022-10-23T19:21:59.786Z,9.00
2022-10-23T19:24:38.210Z,9.10
2022-10-23T19:27:06.951Z,9.10
2022-10-23T19:29:36.840Z,9.10
2022-10-23T19:32:05.017Z,9.10
2022-10-23T19:34:33.146Z,9.00
2022-10-23T19:37:00.293Z,9.00
2022-10-23T19:39:27.772Z,9.10
2022-10-23T19:41:55.399Z,9.00
2022-10-23T19:44:23.087Z,9.00
2022-10-23T19:46:51.298Z,9.00
2022-10-23T19:49:18.977Z,9.00
2022-10-23T19:51:50.941Z,9.10
2022-10-23T19:54:21.080Z,9.10
2022-10-23T19:56:49.839Z,9.00
2022-10-23T19:59:17.217Z,9.00
2022-10-23T20:01:47.848Z,9.10
2022-10-23T20:04:17.492Z,9.10
2022-10-23T20:06:44.513Z,9.00
2022-10-23T20:09:11.960Z,9.00
2022-10-23T20:11:40.582Z,9.00
2022-10-23T20:14:08.315Z,8.90
2022-10-23T20:16:37.915Z,9.10
2022-10-23T20:19:10.725Z,9.10
2022-10-23T20:21:44.562Z,9.10
2022-10-23T20:24:14.218Z,9.00
2022-10-23T20:26:43.418Z,9.00
2022-10-23T20:29:11.352Z,9.00
2022-10-23T20:31:39.689Z,9.10
2022-10-23T20:34:07.851Z,9.10
2022-10-23T20:36:40.124Z,9.10
2022-10-23T20:39:17.888Z,9.10
2022-10-23T20:41:45.463Z,9.10
2022-10-23T20:46:42.747Z,9.00
2022-10-23T20:49:10.942Z,9.00
2022-10-23T20:51:38.461Z,9.00
2022-10-23T20:54:06.114Z,9.00
2022-10-23T20:56:35.297Z,9.10
2022-10-23T20:59:14.948Z,9.10
2022-10-23T21:01:53.662Z,9.20
2022-10-23T21:04:26.559Z,9.20
2022-10-23T21:07:09.480Z,9.10
2022-10-23T21:09:38.014Z,9.10
2022-10-23T21:12:06.673Z,9.10
2022-10-23T21:14:34.558Z,9.10
2022-10-23T21:17:01.909Z,9.00
2022-10-23T21:19:28.783Z,8.90
2022-10-23T21:21:56.130Z,9.10
2022-10-23T21:24:24.385Z,9.10
2022-10-23T21:26:51.730Z,9.10
2022-10-23T21:29:20.144Z,9.00
2022-10-23T21:31:59.326Z,9.00
2022-10-23T21:34:27.389Z,8.90
2022-10-23T21:37:12.527Z,8.80
2022-10-23T21:39:41.240Z,8.80
2022-10-23T21:42:08.431Z,8.80
2022-10-23T21:44:35.495Z,8.80
2022-10-23T21:47:02.552Z,8.70
2022-10-23T21:49:29.489Z,8.60
2022-10-23T21:51:56.388Z,8.60
2022-10-23T21:54:23.651Z,8.60
2022-10-23T21:56:53.745Z,8.60
2022-10-23T21:59:25.259Z,8.60
2022-10-23T22:01:53.877Z,8.50
2022-10-23T22:04:22.152Z,8.60
2022-10-23T22:06:50.084Z,8.50
2022-10-23T22:09:19.550Z,8.40
2022-10-23T22:11:48.619Z,8.50
2022-10-23T22:14:15.530Z,8.50
2022-10-23T22:16:42.536Z,8.50
2022-10-23T22:19:12.524Z,8.50
2022-10-23T22:21:39.548Z,8.60
2022-10-23T22:24:07.484Z,8.60
2022-10-23T22:26:37.557Z,8.50
2022-10-23T22:29:07.441Z,8.40
2022-10-23T22:31:35.888Z,8.30
2022-10-23T22:34:13.333Z,8.30
2022-10-23T22:36:51.941Z,8.30
2022-10-23T22:39:19.150Z,8.20
2022-10-23T22:41:47.598Z,8.10
2022-10-23T22:44:15.672Z,8.20
2022-10-23T22:46:43.632Z,8.30
2022-10-23T22:49:11.094Z,8.20
2022-10-23T22:51:39.710Z,8.20
2022-10-23T22:54:06.928Z,8.30
2022-10-23T22:56:34.208Z,8.40
2022-10-23T22:59:01.202Z,8.40
2022-10-23T23:01:30.118Z,8.40
2022-10-23T23:04:04.442Z,8.40
2022-10-23T23:06:45.518Z,8.30
2022-10-23T23:09:17.065Z,8.30
2022-10-23T23:11:51.575Z,8.40
2022-10-23T23:14:23.283Z,8.40
2022-10-23T23:16:52.445Z,8.30
2022-10-23T23:19:19.490Z,8.20
2022-10-23T23:21:46.525Z,8.20
2022-10-23T23:24:13.353Z,8.10
2022-10-23T23:26:40.764Z,8.10
2022-10-23T23:29:07.585Z,8.10
2022-10-23T23:31:34.538Z,8.10
2022-10-23T23:34:01.395Z,8.10
2022-10-23T23:36:29.139Z,7.90
2022-10-23T23:38:57.798Z,7.80
2022-10-23T23:41:25.768Z,7.80
2022-10-23T23:43:56.298Z,7.80
2022-10-23T23:46:23.456Z,7.70
2022-10-23T23:48:50.617Z,7.60
2022-10-23T23:51:20.768Z,7.60
2022-10-23T23:53:48.715Z,7.60
2022-10-23T23:56:15.985Z,7.50
2022-10-23T23:58:43.216Z,7.40
